• Join FlightAware (Why Join?)
  • Login
  • US Flag 
04:22PM EST


 

Airport Tracker/Info


-or-


 

Live Flight TrackerFlight Track Log ✈ UAL395 ✈ 23-Aug-2013 ✈ KPDX - KIAH

Flight Track Log - Related Links

Times and Time Zones

All times are in EDT time to prevent confusion due to time zone crossing. See the UAL395 flight status page for this flight to view local times or setup timezone preferences in your user account.

Time Position Orientation Groundspeed Altitude Reporting Facility
EDT Latitude Longitude Course Direction KTS MPH feet Rate Location/Type
10:11AM 45.5831 -122.5653 112° Southeast 158 182 600  Level Seattle Center
10:13AM 45.5692 -122.4847 104° East 208 239 2,300 1,860 Climbing Seattle Center
10:14AM 45.4176 -122.1821 138° Southeast  Level FlightAware Approximate
10:14AM 45.5519 -122.3897 104° East 264 304 4,600  Level Seattle Center
10:14AM 45.5472 -122.3478 99° East 238 274 5,600 2,220 Climbing Seattle Center
10:15AM 45.3320 -122.0719 138° Southeast  Level FlightAware Approximate
10:15AM 45.4872 -122.2736 139° Southeast 281 323 8,200  Level Seattle Center
10:16AM 45.2500 -121.9596 90° East  Level FlightAware Approximate
10:16AM 45.4247 -122.1931 138° Southeast 301 346 10,300  Level Seattle Center
10:17AM 45.2002 -121.8172 112° Southeast  Level FlightAware Approximate
10:17AM 45.3322 -122.0756 138° Southeast 375 432 11,600  Level Seattle Center
10:18AM 45.2503 -121.9656 137° Southeast 404 465 13,600 1,800 Climbing Seattle Center
10:19AM 45.2142 -121.8161 109° East 420 483 15,300 1,800 Climbing Seattle Center
10:20AM 45.1708 -121.6558 111° Southeast 432 497 17,300 1,740 Climbing Seattle Center
10:21AM 45.1297 -121.4931 110° East 438 504 18,900 1,500 Climbing Seattle Center
10:22AM 45.0869 -121.3261 110° East 448 516 20,400 1,440 Climbing Seattle Center
10:23AM 45.0417 -121.1558 111° Southeast 462 532 21,900 1,380 Climbing Seattle Center
10:24AM 44.9961 -120.9853 111° Southeast 467 537 23,300 1,200 Climbing Seattle Center
10:25AM 44.9500 -120.8119 111° Southeast 473 544 24,400 1,020 Climbing Seattle Center
10:26AM 44.9031 -120.6364 111° Southeast 479 551 25,400 1,260 Climbing Seattle Center
10:27AM 44.8453 -120.4242 111° Southeast 486 559 27,000 1,080 Climbing Seattle Center
10:28AM 44.7972 -120.2500 111° Southeast 485 558 27,600 720 Climbing Seattle Center
10:29AM 44.7494 -120.0733 111° Southeast 491 565 28,500 840 Climbing Seattle Center
10:30AM 44.7008 -119.8956 111° Southeast 497 572 29,400 960 Climbing Seattle Center
10:31AM 44.6508 -119.7175 111° Southeast 498 573 30,500 1,020 Climbing Seattle Center
10:32AM 44.6000 -119.5428 112° Southeast 491 565 31,500 1,080 Climbing Seattle Center
10:33AM 44.5492 -119.3689 112° Southeast 486 559 32,800 720 Climbing Seattle Center
10:34AM 44.4975 -119.2000 113° Southeast 476 548 33,000 60 Climbing Seattle Center
10:35AM 44.4358 -118.9944 113° Southeast 480 552 33,000 -60 Level Seattle Center
10:36AM 44.3872 -118.8244 112° Southeast 473 544 32,900 -60 Descending Seattle Center
10:38AM 44.3353 -118.6586 114° Southeast 468 539 32,900  Level Seattle Center
10:39AM 44.2867 -118.4889 112° Southeast 472 543 32,900  Level Seattle Center
10:40AM 44.2356 -118.3186 113° Southeast 474 545 33,000  Climbing Seattle Center
10:41AM 44.1822 -118.1528 114° Southeast 473 544 33,000  Level Seattle Center
10:42AM 44.1297 -117.9861 114° Southeast 471 542 33,000  Level Seattle Center
10:43AM 44.0817 -117.8172 112° Southeast 471 542 33,000  Level Seattle Center
10:44AM 44.0281 -117.6536 114° Southeast 467 537 33,000 -60 Level Seattle Center
10:45AM 43.9406 -117.3889 115° Southeast 464 534 32,900  Descending Salt Lake Center
10:46AM 43.8858 -117.2189 114° Southeast 464 534 33,000  Climbing Salt Lake Center
10:47AM 43.8300 -117.0467 114° Southeast 469 540 33,000  Level Salt Lake Center
10:48AM 43.7758 -116.8772 114° Southeast 463 533 33,000  Level Salt Lake Center
10:49AM 43.7250 -116.7203 114° Southeast 463 533 33,000  Level Salt Lake Center
10:50AM 43.6703 -116.5522 114° Southeast 462 532 33,000  Level Salt Lake Center
10:51AM 43.6147 -116.3828 114° Southeast 463 533 33,000 -60 Level Salt Lake Center
10:52AM 43.5606 -116.2142 114° Southeast 460 529 32,900  Descending Salt Lake Center
10:53AM 43.5242 -116.0322 105° East 470 541 33,000  Climbing Salt Lake Center
10:54AM 43.4939 -115.8603 104° East 478 550 33,000  Level Salt Lake Center
10:55AM 43.4603 -115.6756 104° East 478 550 33,000  Level Salt Lake Center
10:56AM 43.4272 -115.4906 104° East 479 551 33,000  Level Salt Lake Center
10:57AM 43.3933 -115.3061 104° East 473 544 33,000  Level Salt Lake Center
10:59AM 43.3600 -115.1219 104° East 478 550 33,000 360 Level Salt Lake Center
11:00AM 43.3258 -114.9400 104° East 471 542 33,800 660 Climbing Salt Lake Center
11:01AM 43.2950 -114.7747 104° East 468 539 34,400 480 Climbing Salt Lake Center
11:02AM 43.2589 -114.5892 105° East 478 550 34,900 240 Climbing Salt Lake Center
11:03AM 43.2242 -114.4072 105° East 476 548 35,000  Climbing Salt Lake Center
11:04AM 43.1886 -114.2233 105° East 477 549 35,000  Level Salt Lake Center
11:05AM 43.1569 -114.0636 105° East 477 549 35,000 -60 Level Salt Lake Center
11:06AM 43.1161 -113.8558 105° East 474 545 34,900 -60 Descending Salt Lake Center
11:07AM 43.0836 -113.6900 105° East 470 541 34,900  Level Salt Lake Center
11:08AM 43.0497 -113.5233 105° East 473 544 35,000  Climbing Salt Lake Center
11:09AM 43.0094 -113.3269 106° East 480 552 35,000  Level Salt Lake Center
11:10AM 42.9750 -113.1603 106° East 479 551 35,000  Level Salt Lake Center
11:11AM 42.9361 -112.9692 105° East 471 542 35,000  Level Salt Lake Center
11:12AM 42.9014 -112.8022 106° East 478 550 35,000 -60 Level Salt Lake Center
11:13AM 42.8589 -112.6133 107° East 470 541 34,900  Descending Salt Lake Center
11:14AM 42.8064 -112.4592 115° Southeast 468 539 35,000  Climbing Salt Lake Center
11:15AM 42.7467 -112.2806 114° Southeast 464 534 35,000  Level Salt Lake Center
11:16AM 42.6958 -112.1292 115° Southeast 466 536 35,000  Level Salt Lake Center
11:17AM 42.6425 -111.9706 115° Southeast 463 533 35,000  Level Salt Lake Center
11:18AM 42.5894 -111.8139 115° Southeast 459 528 35,000 -60 Level Salt Lake Center
11:19AM 42.5247 -111.6269 115° Southeast 457 526 34,900 -60 Descending Salt Lake Center
11:20AM 42.4717 -111.4683 114° Southeast 461 531 34,900  Level Salt Lake Center
11:21AM 42.4167 -111.3117 115° Southeast 462 532 35,000  Climbing Salt Lake Center
11:22AM 42.3617 -111.1522 115° Southeast 467 537 35,000  Level Salt Lake Center
11:23AM 42.3069 -110.9950 115° Southeast 465 535 35,000  Level Salt Lake Center
11:24AM 42.2458 -110.8200 115° Southeast 460 529 35,000 -60 Level Salt Lake Center
11:25AM 42.1936 -110.6739 116° Southeast 453 521 34,900 -60 Descending Salt Lake Center
11:26AM 42.1339 -110.5019 115° Southeast 454 522 34,900  Level Salt Lake Center
11:27AM 42.0811 -110.3561 116° Southeast 455 524 34,900  Level Salt Lake Center
11:29AM 42.0194 -110.1844 116° Southeast 457 526 35,000  Climbing Salt Lake Center
11:30AM 41.9647 -110.0375 117° Southeast 458 527 35,000  Level Salt Lake Center
11:31AM 41.9028 -109.8636 116° Southeast 462 532 35,000  Level Salt Lake Center
11:32AM 41.8483 -109.7147 116° Southeast 464 534 35,000  Level Salt Lake Center
11:33AM 41.7844 -109.5414 116° Southeast 464 534 35,000 -60 Level Salt Lake Center
11:34AM 41.7311 -109.3942 116° Southeast 461 531 34,900  Descending Salt Lake Center
11:35AM 41.6769 -109.2447 116° Southeast 463 533 35,000  Climbing Salt Lake Center
11:36AM 41.6119 -109.0692 116° Southeast 465 535 35,000  Level Salt Lake Center
11:37AM 41.5536 -108.9211 118° Southeast 463 533 35,000 -60 Level Salt Lake Center
11:38AM 41.4844 -108.7514 119° Southeast 461 531 34,900 -60 Descending Salt Lake Center
11:39AM 41.4256 -108.6100 119° Southeast 458 527 34,900  Level Salt Lake Center
11:40AM 41.3664 -108.4664 119° Southeast 460 529 35,000  Climbing Salt Lake Center
11:41AM 41.2978 -108.2992 119° Southeast 459 528 35,000  Level Salt Lake Center
11:42AM 41.2383 -108.1553 119° Southeast 463 533 35,000  Level Salt Lake Center
11:43AM 41.1586 -107.9661 119° Southeast 459 528 35,000  Level Denver Center
11:44AM 41.0997 -107.8264 119° Southeast 454 522 35,000  Level Denver Center
11:45AM 41.0311 -107.6628 119° Southeast 453 521 35,000 -60 Level Denver Center
11:46AM 40.9711 -107.5239 120° Southeast 454 522 34,900  Descending Denver Center
11:47AM 40.9028 -107.3614 119° Southeast 454 522 35,000  Climbing Denver Center
11:48AM 40.8425 -107.2222 120° Southeast 455 524 35,000  Level Denver Center
11:49AM 40.7731 -107.0592 119° Southeast 457 526 35,000  Level Denver Center
11:50AM 40.7111 -106.9178 120° Southeast 456 525 35,000  Level Denver Center
11:51AM 40.6478 -106.7708 120° Southeast 458 527 35,000  Level Denver Center
11:52AM 40.5847 -106.6269 120° Southeast 455 524 35,000  Level Denver Center
11:53AM 40.5219 -106.4836 120° Southeast 453 521 35,000 -60 Level Denver Center
11:55AM 40.4522 -106.3233 120° Southeast 452 520 34,900  Descending Denver Center
11:56AM 40.3936 -106.1878 120° Southeast 449 517 35,000  Climbing Denver Center
11:57AM 40.3217 -106.0231 120° Southeast 452 520 35,000  Level Denver Center
11:58AM 40.2586 -105.8808 120° Southeast 452 520 35,000 -60 Level Denver Center
11:59AM 40.1961 -105.7353 119° Southeast 453 521 34,900  Descending Denver Center
12:00PM 40.1319 -105.5931 121° Southeast 450 518 35,000  Climbing Denver Center
12:01PM 40.0675 -105.4511 121° Southeast 455 524 35,000  Level Denver Center
12:02PM 40.0031 -105.3094 121° Southeast 455 524 35,000  Level Denver Center
12:03PM 39.9272 -105.1397 120° Southeast 450 518 35,000  Level Denver Center
12:04PM 39.8611 -104.9958 121° Southeast 460 529 35,000  Level Denver Center
12:05PM 39.7947 -104.8536 121° Southeast 470 541 35,000  Level Denver Center
12:06PM 39.7358 -104.7128 119° Southeast 444 511 35,000  Level Denver Center
12:07PM 39.6575 -104.5708 126° Southeast 458 527 35,000  Level Denver Center
12:08PM 39.5653 -104.4525 135° Southeast 442 509 35,000 -60 Level Denver Center
12:09PM 39.4769 -104.3367 135° Southeast 443 510 34,900 -60 Descending Denver Center
12:10PM 39.3894 -104.2225 135° Southeast 449 517 34,900  Level Denver Center
12:11PM 39.2861 -104.0850 134° Southeast 435 501 35,000  Climbing Denver Center
12:12PM 39.1978 -103.9708 135° Southeast 448 516 35,000  Level Denver Center
12:13PM 39.1100 -103.8553 134° Southeast 452 520 35,000  Level Denver Center
12:14PM 39.0211 -103.7406 135° Southeast 454 522 35,000  Level Denver Center
12:15PM 38.9325 -103.6253 135° Southeast 454 522 35,000  Level Denver Center
12:16PM 38.8378 -103.5017 135° Southeast 454 522 35,000  Level Denver Center
12:17PM 38.7369 -103.3731 135° Southeast 453 521 35,000 -60 Level Denver Center
12:18PM 38.6492 -103.2594 135° Southeast 452 520 34,900 -60 Descending Denver Center
12:19PM 38.5564 -103.1414 109° East 450 518 34,900  Level Denver Center
12:20PM 38.4722 -103.0331 135° Southeast 450 518 35,000  Climbing Denver Center
12:21PM 38.3708 -102.9072 136° Southeast 453 521 35,000  Level Denver Center
12:22PM 38.2847 -102.7986 135° Southeast 455 524 35,000  Level Denver Center
12:23PM 38.1989 -102.6900 135° Southeast 455 524 35,000  Level Denver Center
12:25PM 38.0897 -102.5756 140° Southeast 456 525 35,000  Level Denver Center
12:26PM 37.9903 -102.4728 141° Southeast 455 524 35,000  Level Denver Center
12:27PM 37.8869 -102.3667 141° Southeast 453 521 35,000 -60 Level Denver Center
12:28PM 37.7808 -102.2558 140° Southeast 446 513 34,900 -60 Descending Denver Center
12:29PM 37.6900 -102.1619 141° Southeast 443 510 34,900  Level Denver Center
12:29PM 37.6281 -102.1000 142° Southeast 444 511 35,000  Climbing Kansas City Center
12:30PM 37.5228 -101.9925 141° Southeast 439 505 35,000  Level Kansas City Center
12:31PM 37.4308 -101.8989 141° Southeast 442 509 35,000  Level Kansas City Center
12:32PM 37.3236 -101.7903 141° Southeast 444 511 35,000  Level Kansas City Center
12:34PM 37.2322 -101.6967 141° Southeast 445 512 35,000  Level Kansas City Center
12:35PM 37.1236 -101.5886 142° Southeast 447 514 35,000  Level Kansas City Center
12:36PM 37.0317 -101.4964 141° Southeast 446 513 35,000  Level Kansas City Center
12:37PM 36.9247 -101.3886 141° Southeast 444 511 35,000 -60 Level Kansas City Center
12:38PM 36.8331 -101.2967 141° Southeast 443 510 34,900  Descending Kansas City Center
12:39PM 36.7253 -101.1897 141° Southeast 443 510 35,000  Climbing Kansas City Center
12:40PM 36.6336 -101.0986 141° Southeast 442 509 35,000  Level Kansas City Center
12:41PM 36.5267 -100.9933 142° Southeast 441 507 35,000  Level Kansas City Center
12:42PM 36.4317 -100.9003 142° Southeast 442 509 35,000  Level Kansas City Center
12:43PM 36.3353 -100.8044 141° Southeast 443 510 35,000  Level Kansas City Center
12:44PM 36.2375 -100.7094 142° Southeast 444 511 35,000  Level Kansas City Center
12:45PM 36.1231 -100.5992 142° Southeast 441 507 35,000  Level Kansas City Center
12:46PM 36.0261 -100.5044 142° Southeast 442 509 35,000 -60 Level Kansas City Center
12:47PM 35.9289 -100.4114 142° Southeast 443 510 34,900 -60 Descending Kansas City Center
12:48PM 35.8325 -100.3189 142° Southeast 440 506 34,900  Level Kansas City Center
12:49PM 35.7361 -100.2250 142° Southeast 442 509 35,000  Climbing Kansas City Center
12:50PM 35.6378 -100.1319 142° Southeast 444 511 35,000  Level Kansas City Center
12:51PM 35.5200 -100.0189 142° Southeast 447 514 35,000  Level Kansas City Center
12:52PM 35.4219 -99.9269 143° Southeast 446 513 35,000  Level Kansas City Center
12:53PM 35.3239 -99.8322 142° Southeast 448 516 35,000  Level Kansas City Center
12:55PM 35.1853 -99.7033 143° Southeast 447 514 35,000  Level Albuquerque Center
12:56PM 35.0858 -99.6119 143° Southeast 447 514 35,000  Level Albuquerque Center
12:57PM 34.9797 -99.5167 144° Southeast 448 516 35,000  Level Fort Worth Center
12:58PM 34.8789 -99.4258 144° Southeast 448 516 35,000  Level Fort Worth Center
12:59PM 34.7803 -99.3325 142° Southeast 448 516 35,000  Level Fort Worth Center
01:00PM 34.6794 -99.2417 143° Southeast 448 516 35,000  Level Fort Worth Center
01:01PM 34.5806 -99.1489 142° Southeast 448 516 35,000  Level Fort Worth Center
01:02PM 34.4939 -99.0814 147° Southeast 443 510 35,000  Level Fort Worth Center
01:03PM 34.3950 -98.9914 143° Southeast 436 502 35,000  Level Fort Worth Center
01:04PM 34.2958 -98.9042 144° Southeast 445 512 35,000  Level Fort Worth Center
01:05PM 34.1947 -98.8147 144° Southeast 451 519 35,000  Level Fort Worth Center
01:06PM 34.0956 -98.7228 142° Southeast 446 513 35,000  Level Fort Worth Center
01:07PM 33.9961 -98.6361 144° Southeast 446 513 35,000  Level Fort Worth Center
01:08PM 33.9011 -98.5469 142° Southeast 441 507 35,000 -60 Level Fort Worth Center
01:09PM 33.8017 -98.4608 144° Southeast 441 507 34,900  Descending Fort Worth Center
01:10PM 33.7042 -98.3722 143° Southeast 441 507 35,000  Climbing Fort Worth Center
01:11PM 33.6025 -98.2864 145° Southeast 446 513 35,000  Level Fort Worth Center
01:12PM 33.4906 -98.1881 144° Southeast 459 528 35,000  Level Fort Worth Center
01:13PM 33.4033 -98.1128 144° Southeast 442 509 35,000  Level Fort Worth Center
01:14PM 33.3036 -98.0275 144° Southeast 442 509 35,000  Level Fort Worth Center
01:15PM 33.2039 -97.9397 144° Southeast 447 514 35,000  Level Fort Worth Center
01:16PM 33.1039 -97.8550 145° Southeast 447 514 35,000  Level Fort Worth Center
01:17PM 33.0061 -97.7700 144° Southeast 447 514 35,000  Level Fort Worth Center
01:18PM 32.8936 -97.6758 145° Southeast 447 514 35,000  Level Fort Worth Center
01:19PM 32.7936 -97.5939 145° Southeast 447 514 35,000  Level Fort Worth Center
01:20PM 32.6933 -97.5047 143° Southeast 447 514 35,000  Level Fort Worth Center
01:21PM 32.5911 -97.4233 146° Southeast 447 514 35,000  Level Fort Worth Center
01:22PM 32.4847 -97.3444 148° Southeast 447 514 35,000  Level Fort Worth Center
01:23PM 32.3844 -97.2706 148° Southeast 442 509 35,000 -540 Level Fort Worth Center
01:24PM 32.2883 -97.1997 148° Southeast 424 488 34,000 -960 Descending Fort Worth Center
01:25PM 32.1900 -97.1261 148° Southeast 418 481 33,100 -960 Descending Fort Worth Center
01:26PM 32.0875 -97.0506 148° Southeast 418 481 32,100 -1,020 Descending Fort Worth Center
01:27PM 31.9786 -96.9725 149° Southeast 434 499 31,100 -1,020 Descending Fort Worth Center
01:28PM 31.8003 -96.8381 147° Southeast 461 531 29,400 -780 Descending Houston Center
01:29PM 31.6881 -96.7569 148° Southeast 468 539 29,000 -240 Descending Houston Center
01:30PM 31.5764 -96.6767 149° Southeast 466 536 29,000 -60 Level Houston Center
01:31PM 31.4647 -96.5964 148° Southeast 464 534 28,900 -540 Descending Houston Center
01:32PM 31.3539 -96.5142 148° Southeast 465 535 27,900 -1,080 Descending Houston Center
01:33PM 31.2239 -96.4175 148° Southeast 468 539 26,700 -1,080 Descending Houston Center
01:34PM 31.1097 -96.3353 148° Southeast 474 545 25,700 -1,260 Descending Houston Center
01:35PM 30.9989 -96.2550 148° Southeast 466 536 24,100 -1,920 Descending Houston Center
01:37PM 30.8972 -96.1808 148° Southeast 437 503 21,800 -2,400 Descending Houston Center
01:38PM 30.7992 -96.1106 148° Southeast 415 478 19,200 -3,180 Descending Houston Center
01:39PM 30.6969 -96.0386 149° Southeast 389 448 15,300 -3,600 Descending Houston Center
01:40PM 30.6189 -95.9819 148° Southeast 366 421 12,200 -2,580 Descending Houston Center
01:41PM 30.5283 -95.9158 148° Southeast 354 407 10,000 -1,200 Descending Houston Center
01:42PM 30.4558 -95.8639 148° Southeast 313 360 9,700 -660 Descending Houston Center
01:43PM 30.3786 -95.8500 171° South 293 337 8,800 -1,020 Descending Houston Center
01:44PM 30.2947 -95.8500 180° South 292 336 7,800 -1,080 Descending Houston Center
01:45PM 30.2106 -95.8475 179° South 289 333 6,600 -1,320 Descending Houston Center
01:46PM 30.1256 -95.8425 177° South 283 326 4,900 -1,380 Descending Houston Center
01:47PM 30.0728 -95.7864 137° Southeast 266 306 3,700 -1,020 Descending Houston Center
01:48PM 30.0294 -95.7214 128° Southeast 266 306 3,000 -360 Descending Houston Center
01:49PM 30.0075 -95.6419 108° East 220 253 3,000  Level Houston Center
01:50PM 30.0061 -95.5769 91° East 184 212 3,000 -180 Level Houston Center
01:51PM 30.0067 -95.5142 89° East 190 219 2,700 -660 Descending Houston Center
01:52PM 30.0075 -95.4539 89° East 184 212 1,700 -900 Descending Houston Center
01:53PM 30.0075 -95.4081 90° East 138 159 1,000 -780 Descending Houston Center